createdAt,value
2018-05-10T00:00:25.030Z,8.20
2018-05-10T00:03:27.486Z,8.17
2018-05-10T00:06:30.702Z,8.03
2018-05-10T00:09:33.153Z,8.63
2018-05-10T00:12:36.398Z,8.67
2018-05-10T00:15:38.858Z,8.63
2018-05-10T00:18:41.322Z,8.13
2018-05-10T00:21:43.772Z,8.70
2018-05-10T00:24:46.993Z,7.93
2018-05-10T00:27:49.450Z,7.57
2018-05-10T00:30:52.677Z,7.47
2018-05-10T00:33:55.139Z,7.77
2018-05-10T00:36:57.577Z,8.13
2018-05-10T00:40:00.034Z,8.20
2018-05-10T00:43:02.483Z,8.17
2018-05-10T00:46:04.955Z,8.20
2018-05-10T00:49:07.433Z,8.60
2018-05-10T00:52:09.877Z,8.30
2018-05-10T00:55:13.110Z,8.73
2018-05-10T00:58:15.561Z,9.50
2018-05-10T01:01:18.018Z,9.23
2018-05-10T01:04:21.241Z,8.80
2018-05-10T01:07:23.681Z,8.47
2018-05-10T01:10:26.151Z,8.93
2018-05-10T01:13:28.610Z,9.10
2018-05-10T01:16:31.058Z,8.77
2018-05-10T01:19:42.306Z,8.97
2018-05-10T01:22:45.524Z,9.47
2018-05-10T01:25:47.974Z,10.10
2018-05-10T01:28:51.922Z,9.67
2018-05-10T01:31:54.371Z,9.43
2018-05-10T01:35:09.301Z,9.90
2018-05-10T01:38:11.749Z,9.50
2018-05-10T01:41:14.206Z,10.77
2018-05-10T01:44:16.669Z,10.33
2018-05-10T01:47:19.889Z,9.90
2018-05-10T01:50:22.342Z,9.70
2018-05-10T01:53:25.558Z,10.47
2018-05-10T01:56:28.017Z,9.60
2018-05-10T01:59:30.469Z,9.63
2018-05-10T02:02:32.913Z,9.27
2018-05-10T02:05:35.369Z,9.60
2018-05-10T02:08:37.831Z,9.07
2018-05-10T02:11:40.278Z,9.03
2018-05-10T02:14:42.760Z,8.90
2018-05-10T02:17:45.178Z,9.10
2018-05-10T02:20:47.635Z,9.30
2018-05-10T02:23:50.090Z,8.77
2018-05-10T02:26:53.305Z,9.60
2018-05-10T02:29:55.765Z,9.80
2018-05-10T02:32:58.983Z,10.97
2018-05-10T02:36:01.434Z,12.70
2018-05-10T02:39:04.663Z,13.20
2018-05-10T02:42:07.109Z,14.43
2018-05-10T02:45:09.565Z,13.60
2018-05-10T02:48:12.016Z,13.00
2018-05-10T02:51:14.474Z,14.13
2018-05-10T02:54:16.937Z,13.70
2018-05-10T02:57:19.386Z,13.93
2018-05-10T03:00:22.611Z,13.30
2018-05-10T03:03:25.058Z,13.70
2018-05-10T03:06:28.288Z,12.73
2018-05-10T03:09:30.761Z,12.50
2018-05-10T03:12:33.206Z,11.07
2018-05-10T03:15:36.451Z,11.57
2018-05-10T03:18:38.902Z,12.60
2018-05-10T03:21:41.357Z,12.83
2018-05-10T03:24:44.582Z,12.20
2018-05-10T03:27:47.026Z,12.07
2018-05-10T03:30:50.258Z,11.53
2018-05-10T03:33:52.701Z,10.77
2018-05-10T03:36:55.926Z,12.80
2018-05-10T03:39:58.394Z,11.80
2018-05-10T03:43:00.837Z,11.20
2018-05-10T03:46:04.066Z,11.40
2018-05-10T03:49:06.529Z,10.63
2018-05-10T03:52:08.986Z,11.20
2018-05-10T03:55:11.446Z,10.77
2018-05-10T03:58:13.893Z,10.47
2018-05-10T04:01:16.362Z,10.90
2018-05-10T04:04:30.606Z,9.97
2018-05-10T04:11:16.637Z,9.17
2018-05-10T04:14:19.104Z,8.60
2018-05-10T04:17:21.542Z,9.13
2018-05-10T04:20:24.795Z,8.30
2018-05-10T04:23:27.241Z,9.07
2018-05-10T04:26:29.696Z,7.53
2018-05-10T04:29:32.925Z,7.53
2018-05-10T04:32:35.375Z,7.77
2018-05-10T04:35:38.679Z,7.50
2018-05-10T04:38:41.029Z,7.87
2018-05-10T04:41:44.257Z,7.10
2018-05-10T04:44:46.716Z,12.13
2018-05-10T04:47:49.927Z,7.97
2018-05-10T04:50:52.383Z,7.93
2018-05-10T04:53:54.823Z,7.47
2018-05-10T04:56:57.278Z,7.70
2018-05-10T04:59:59.754Z,8.00
2018-05-10T05:03:02.213Z,7.93
2018-05-10T05:06:04.658Z,7.40
2018-05-10T05:09:07.955Z,6.67
2018-05-10T05:12:10.330Z,8.50
2018-05-10T05:15:12.786Z,7.53
2018-05-10T05:18:15.235Z,6.70
2018-05-10T05:21:17.683Z,7.33
2018-05-10T05:24:20.129Z,7.63
2018-05-10T05:27:22.573Z,6.83
2018-05-10T05:30:25.022Z,5.70
2018-05-10T05:33:27.470Z,5.27
2018-05-10T05:36:30.699Z,5.40
2018-05-10T05:39:33.138Z,5.17
2018-05-10T05:42:36.368Z,5.17
2018-05-10T05:45:38.814Z,4.57
2018-05-10T05:48:42.028Z,4.60
2018-05-10T05:51:44.465Z,4.60
2018-05-10T05:54:46.914Z,4.63
2018-05-10T05:57:49.357Z,5.77
2018-05-10T06:00:51.828Z,5.40
2018-05-10T06:03:55.014Z,4.50
2018-05-10T06:06:57.469Z,4.67
2018-05-10T06:10:00.685Z,4.62
2018-05-10T06:13:03.150Z,4.50
2018-05-10T06:16:06.410Z,4.15
2018-05-10T06:19:08.818Z,4.87
2018-05-10T06:22:12.046Z,4.62
2018-05-10T06:25:14.552Z,4.35
2018-05-10T06:28:23.305Z,4.35
2018-05-10T06:31:25.760Z,4.70
2018-05-10T06:34:28.206Z,4.12
2018-05-10T06:37:30.662Z,4.55
2018-05-10T06:40:33.097Z,4.35
2018-05-10T06:43:35.553Z,3.67
2018-05-10T06:46:38.007Z,4.00
2018-05-10T06:49:40.451Z,4.35
2018-05-10T06:52:43.672Z,11.88
2018-05-10T06:55:46.129Z,5.10
2018-05-10T06:58:49.337Z,4.30
2018-05-10T07:01:51.793Z,5.68
2018-05-10T07:04:55.005Z,6.22
2018-05-10T07:07:57.470Z,6.87
2018-05-10T07:11:00.689Z,7.20
2018-05-10T07:14:03.143Z,7.35
2018-05-10T07:17:06.358Z,6.90
2018-05-10T07:20:08.812Z,6.30
2018-05-10T07:23:12.034Z,5.90
2018-05-10T07:26:14.502Z,5.95
2018-05-10T07:29:16.942Z,5.75
2018-05-10T07:32:19.385Z,5.65
2018-05-10T07:35:21.831Z,5.18
2018-05-10T07:38:24.281Z,4.60
2018-05-10T07:41:26.729Z,5.75
2018-05-10T07:44:29.177Z,5.40
2018-05-10T07:47:31.635Z,5.53
2018-05-10T07:50:34.073Z,4.90
2018-05-10T07:53:36.527Z,5.68
2018-05-10T07:56:38.973Z,5.87
2018-05-10T07:59:41.416Z,5.20
2018-05-10T08:02:44.642Z,4.57
2018-05-10T08:05:47.081Z,5.35
2018-05-10T08:08:50.613Z,4.95
2018-05-10T08:11:53.072Z,5.07
2018-05-10T08:14:56.282Z,4.82
2018-05-10T08:17:58.734Z,4.85
2018-05-10T08:21:01.953Z,4.78
2018-05-10T08:24:04.402Z,5.90
2018-05-10T08:27:07.613Z,5.20
2018-05-10T08:30:10.122Z,4.70
2018-05-10T08:33:12.508Z,5.00
2018-05-10T08:36:14.952Z,4.70
2018-05-10T08:39:17.401Z,4.90
2018-05-10T08:42:20.618Z,4.53
2018-05-10T08:45:23.069Z,5.00
2018-05-10T08:48:25.517Z,5.45
2018-05-10T08:51:27.962Z,5.10
2018-05-10T08:54:30.408Z,5.03
2018-05-10T08:57:32.855Z,5.12
2018-05-10T09:00:35.297Z,4.95
2018-05-10T09:03:37.741Z,5.00
2018-05-10T09:06:40.957Z,5.30
2018-05-10T09:09:43.397Z,5.03
2018-05-10T09:13:04.475Z,5.77
2018-05-10T09:16:07.046Z,5.10
2018-05-10T09:19:09.506Z,5.80
2018-05-10T09:22:11.978Z,5.57
2018-05-10T09:25:14.419Z,5.70
2018-05-10T09:28:17.647Z,6.23
2018-05-10T09:31:20.093Z,5.97
2018-05-10T09:34:23.305Z,5.87
2018-05-10T09:37:25.757Z,6.03
2018-05-10T09:40:28.205Z,5.23
2018-05-10T09:43:30.665Z,5.00
2018-05-10T09:46:33.105Z,5.27
2018-05-10T09:49:36.317Z,5.40
2018-05-10T09:52:38.804Z,5.20
2018-05-10T09:55:41.990Z,5.77
2018-05-10T09:58:44.454Z,5.17
2018-05-10T10:01:47.665Z,5.37
2018-05-10T10:04:50.105Z,7.30
2018-05-10T10:07:53.334Z,6.90
2018-05-10T10:10:55.779Z,10.27
2018-05-10T10:13:59.002Z,13.97
2018-05-10T10:17:01.466Z,13.30
2018-05-10T10:20:03.914Z,14.60
2018-05-10T10:23:06.373Z,17.03
2018-05-10T10:26:08.830Z,20.20
2018-05-10T10:29:11.294Z,31.87
2018-05-10T10:32:13.766Z,37.40
2018-05-10T10:35:16.201Z,37.57
2018-05-10T10:38:18.726Z,39.53
2018-05-10T10:41:21.118Z,40.43
2018-05-10T10:44:23.583Z,42.07
2018-05-10T10:47:26.045Z,45.37
2018-05-10T10:50:28.491Z,48.13
2018-05-10T10:53:31.713Z,47.33
2018-05-10T10:56:34.161Z,47.43
2018-05-10T10:59:36.617Z,48.20
2018-05-10T11:02:39.076Z,47.37
2018-05-10T11:05:42.294Z,48.17
2018-05-10T11:08:44.740Z,51.17
2018-05-10T11:11:47.186Z,46.57
2018-05-10T11:14:49.642Z,45.97
2018-05-10T11:17:52.866Z,43.83
2018-05-10T11:20:55.346Z,42.60
2018-05-10T11:23:58.530Z,41.70
2018-05-10T11:27:00.973Z,42.20
2018-05-10T11:30:03.493Z,41.00
2018-05-10T11:33:05.957Z,39.70
2018-05-10T11:36:08.416Z,40.90
2018-05-10T11:39:11.666Z,43.13
2018-05-10T11:42:14.078Z,43.57
2018-05-10T11:45:16.542Z,42.17
2018-05-10T11:48:18.985Z,42.50
2018-05-10T11:51:21.442Z,45.30
2018-05-10T11:54:23.901Z,42.30
2018-05-10T11:57:27.211Z,43.50
2018-05-10T12:00:29.574Z,39.47
2018-05-10T12:03:32.032Z,42.17
2018-05-10T12:06:34.493Z,42.50
2018-05-10T12:09:36.944Z,42.03
2018-05-10T12:12:39.402Z,42.43
2018-05-10T12:15:41.901Z,40.97
2018-05-10T12:18:45.078Z,40.97
2018-05-10T12:21:47.523Z,41.87
2018-05-10T12:24:50.749Z,40.00
2018-05-10T12:27:53.209Z,42.07
2018-05-10T12:30:55.747Z,40.67
2018-05-10T12:33:58.114Z,41.60
2018-05-10T12:37:00.562Z,40.70
2018-05-10T12:40:03.019Z,37.80
2018-05-10T12:43:05.480Z,38.03
2018-05-10T12:46:09.678Z,37.43
2018-05-10T12:49:12.138Z,37.67
2018-05-10T12:52:14.591Z,40.07
2018-05-10T12:55:17.045Z,39.20
2018-05-10T12:58:19.519Z,40.60
2018-05-10T13:01:21.962Z,38.30
2018-05-10T13:04:25.198Z,37.80
2018-05-10T13:07:27.645Z,35.73
2018-05-10T13:10:30.105Z,34.30
2018-05-10T13:13:32.568Z,34.83
2018-05-10T13:16:35.014Z,32.10
2018-05-10T13:19:37.473Z,32.13
2018-05-10T13:22:39.918Z,34.87
2018-05-10T13:25:43.141Z,33.43
2018-05-10T13:28:45.606Z,31.10
2018-05-10T13:31:48.053Z,31.70
2018-05-10T13:34:50.573Z,31.17
2018-05-10T13:37:53.805Z,31.13
2018-05-10T13:40:56.253Z,28.37
2018-05-10T13:43:58.714Z,28.90
2018-05-10T13:47:01.172Z,27.97
2018-05-10T13:50:03.625Z,27.10
2018-05-10T13:53:06.089Z,26.70
2018-05-10T13:56:08.525Z,26.87
2018-05-10T13:59:10.983Z,25.23
2018-05-10T14:02:14.197Z,25.63
2018-05-10T14:05:16.739Z,24.23
2018-05-10T14:08:19.200Z,23.13
2018-05-10T14:11:21.651Z,22.93
2018-05-10T14:14:24.110Z,22.83
2018-05-10T14:17:26.565Z,22.20
2018-05-10T14:20:29.884Z,22.17
2018-05-10T14:23:32.337Z,21.30
2018-05-10T14:26:35.554Z,20.53
2018-05-10T14:29:38.014Z,20.23
2018-05-10T14:32:55.144Z,19.77
2018-05-10T14:35:57.593Z,18.53
2018-05-10T14:39:00.822Z,19.30
2018-05-10T14:42:03.269Z,19.20
2018-05-10T14:45:05.735Z,19.60
2018-05-10T14:48:08.185Z,19.70
2018-05-10T14:51:10.638Z,20.33
2018-05-10T14:54:13.101Z,21.10
2018-05-10T14:57:15.541Z,22.23
2018-05-10T15:00:18.027Z,21.67
2018-05-10T15:03:20.453Z,25.23
2018-05-10T15:06:22.921Z,26.20
2018-05-10T15:09:25.374Z,26.43
2018-05-10T15:12:27.829Z,26.90
2018-05-10T15:15:31.133Z,26.77
2018-05-10T15:18:33.513Z,28.03
2018-05-10T15:21:36.730Z,28.13
2018-05-10T15:24:39.191Z,29.00
2018-05-10T15:27:41.640Z,29.07
2018-05-10T15:30:44.099Z,31.73
2018-05-10T15:33:46.556Z,31.90
2018-05-10T15:36:49.007Z,31.43
2018-05-10T15:39:51.462Z,32.23
2018-05-10T15:42:54.694Z,30.53
2018-05-10T15:45:57.158Z,29.97
2018-05-10T15:52:45.730Z,27.90
2018-05-10T15:55:48.188Z,23.73
2018-05-10T15:58:52.229Z,22.70
2018-05-10T16:02:05.590Z,26.37
2018-05-10T16:05:08.042Z,25.47
2018-05-10T16:08:10.489Z,25.33
2018-05-10T16:11:13.715Z,25.00
2018-05-10T16:14:16.165Z,25.50
2018-05-10T16:17:19.385Z,24.93
2018-05-10T16:20:21.844Z,25.13
2018-05-10T16:23:24.296Z,27.33
2018-05-10T16:26:27.586Z,24.67
2018-05-10T16:29:29.988Z,25.60
2018-05-10T16:32:33.219Z,25.83
2018-05-10T16:35:35.678Z,24.80
2018-05-10T16:38:38.125Z,26.17
2018-05-10T16:41:41.362Z,24.73
2018-05-10T16:44:43.809Z,24.00
2018-05-10T16:47:46.278Z,25.00
2018-05-10T16:50:49.505Z,24.07
2018-05-10T16:53:53.953Z,22.93
2018-05-10T16:56:56.414Z,20.87
2018-05-10T16:59:58.870Z,20.77
2018-05-10T17:03:01.343Z,19.20
2018-05-10T17:06:03.798Z,18.60
2018-05-10T17:09:07.014Z,18.47
2018-05-10T17:12:09.477Z,18.53
2018-05-10T17:15:11.939Z,16.93
2018-05-10T17:18:15.161Z,16.50
2018-05-10T17:21:17.617Z,16.03
2018-05-10T17:24:20.850Z,15.97
2018-05-10T17:27:23.317Z,15.37
2018-05-10T17:30:25.777Z,14.83
2018-05-10T17:33:28.234Z,15.07
2018-05-10T17:36:31.467Z,14.90
2018-05-10T17:39:33.957Z,13.70
2018-05-10T17:42:36.426Z,15.50
2018-05-10T17:45:38.887Z,13.70
2018-05-10T17:48:41.346Z,13.63
2018-05-10T17:51:44.583Z,15.23
2018-05-10T17:54:47.037Z,14.00
2018-05-10T17:57:49.503Z,14.50
2018-05-10T18:00:52.032Z,14.07
2018-05-10T18:03:54.510Z,15.17
2018-05-10T18:06:56.965Z,13.53
2018-05-10T18:09:59.417Z,12.57
2018-05-10T18:13:01.882Z,14.37
2018-05-10T18:16:04.333Z,15.23
2018-05-10T18:19:06.849Z,12.50
2018-05-10T18:22:09.254Z,12.20
2018-05-10T18:25:12.468Z,9.67
2018-05-10T18:28:14.931Z,9.57
2018-05-10T18:31:17.373Z,9.10
2018-05-10T18:34:19.829Z,8.40
2018-05-10T18:37:23.045Z,9.17
2018-05-10T18:40:25.491Z,9.23
2018-05-10T18:43:28.723Z,9.00
2018-05-10T18:46:31.175Z,8.17
2018-05-10T18:49:34.404Z,7.70
2018-05-10T18:52:36.856Z,8.10
2018-05-10T18:55:39.310Z,8.67
2018-05-10T18:58:42.537Z,7.63
2018-05-10T19:01:44.983Z,7.90
2018-05-10T19:04:48.213Z,8.07
2018-05-10T19:07:50.682Z,8.17
2018-05-10T19:10:53.133Z,7.03
2018-05-10T19:13:56.373Z,8.50
2018-05-10T19:16:58.829Z,7.50
2018-05-10T19:20:01.301Z,10.33
2018-05-10T19:23:03.749Z,8.93
2018-05-10T19:26:06.208Z,7.40
2018-05-10T19:29:08.666Z,8.20
2018-05-10T19:32:11.117Z,8.73
2018-05-10T19:35:13.573Z,9.67
2018-05-10T19:38:16.793Z,9.40
2018-05-10T19:41:19.241Z,8.90
2018-05-10T19:44:22.462Z,9.07
2018-05-10T19:47:24.909Z,8.40
2018-05-10T19:50:28.137Z,9.13
2018-05-10T19:53:30.594Z,9.70
2018-05-10T19:56:33.046Z,10.13
2018-05-10T19:59:35.501Z,12.17
2018-05-10T20:02:37.964Z,10.30
2018-05-10T20:05:41.169Z,10.50
2018-05-10T20:08:43.630Z,11.13
2018-05-10T20:11:46.082Z,12.10
2018-05-10T20:14:48.542Z,10.93
2018-05-10T20:17:51.002Z,12.47
2018-05-10T20:20:53.450Z,12.67
2018-05-10T20:23:56.088Z,13.27
2018-05-10T20:34:04.997Z,12.97
2018-05-10T20:37:07.452Z,13.67
2018-05-10T20:40:09.914Z,15.17
2018-05-10T20:43:12.407Z,14.97
2018-05-10T20:46:14.841Z,13.93
2018-05-10T20:49:18.073Z,15.93
2018-05-10T20:52:20.538Z,16.97
2018-05-10T20:55:22.999Z,12.83
2018-05-10T20:58:26.222Z,12.63
2018-05-10T21:01:28.670Z,13.03
2018-05-10T21:04:31.898Z,12.07
2018-05-10T21:07:34.350Z,12.70
2018-05-10T21:10:36.817Z,11.90
2018-05-10T21:13:40.072Z,12.20
2018-05-10T21:16:42.517Z,12.80
2018-05-10T21:19:44.978Z,11.43
2018-05-10T21:22:47.437Z,12.60
2018-05-10T21:25:49.900Z,12.03
2018-05-10T21:28:52.443Z,12.33
2018-05-10T21:31:54.889Z,12.67
2018-05-10T21:34:57.360Z,11.80
2018-05-10T21:37:59.847Z,11.30
2018-05-10T21:41:02.338Z,11.40
2018-05-10T21:44:04.820Z,13.50
2018-05-10T21:47:07.305Z,12.67
2018-05-10T21:50:09.801Z,12.93
2018-05-10T21:53:12.292Z,12.27
2018-05-10T21:56:14.766Z,11.97
2018-05-10T21:59:18.041Z,12.23
2018-05-10T22:02:22.200Z,12.23
2018-05-10T22:05:25.473Z,12.27
2018-05-10T22:08:27.947Z,12.03
2018-05-10T22:11:30.446Z,12.67
2018-05-10T22:14:33.722Z,11.80
2018-05-10T22:17:36.203Z,13.23
2018-05-10T22:20:38.714Z,12.33
2018-05-10T22:23:41.176Z,13.33
2018-05-10T22:26:44.447Z,13.03
2018-05-10T22:29:46.927Z,14.63
2018-05-10T22:32:49.414Z,12.90
2018-05-10T22:35:51.895Z,12.47
2018-05-10T22:38:54.379Z,13.10
2018-05-10T22:41:57.662Z,13.10
2018-05-10T22:45:00.158Z,11.97
2018-05-10T22:48:02.633Z,12.67
2018-05-10T22:51:05.879Z,13.23
2018-05-10T22:54:08.325Z,12.63
2018-05-10T22:57:10.794Z,12.37
2018-05-10T23:00:13.260Z,12.43
2018-05-10T23:03:16.478Z,12.93
2018-05-10T23:06:18.939Z,12.20
2018-05-10T23:09:21.390Z,12.50
2018-05-10T23:12:23.858Z,12.30
2018-05-10T23:15:26.321Z,11.97
2018-05-10T23:18:28.778Z,11.43
2018-05-10T23:21:31.242Z,13.13
2018-05-10T23:24:33.703Z,12.03
2018-05-10T23:27:36.158Z,12.20
2018-05-10T23:30:39.394Z,11.53
2018-05-10T23:33:41.854Z,11.27
2018-05-10T23:36:44.317Z,12.77
2018-05-10T23:39:47.539Z,11.60
2018-05-10T23:42:49.998Z,11.20
2018-05-10T23:45:52.452Z,12.33
2018-05-10T23:48:55.765Z,11.30
2018-05-10T23:51:58.241Z,11.63
2018-05-10T23:55:00.708Z,11.23
2018-05-10T23:58:03.938Z,11.53
